Startpagina
METAR-TAF:

METAR-TAF

Vliegvelden :

Luchthaven Mayotte-Dzaoudzi Pamandzi

Dzaoudzi, Mayotte

breedte: 12-48S, lengte: 045-17E, hoogte: 8 m

Actueel weer

Dit bericht is 16 minuten geleden gemaakt, om 19:00 UTC
Wind 9 kt uit het zuidoosten
Temperatuur 26°C
Vochtigheid 79%
Druk 1018 hPa
Zicht 10 km of meer
geen wolken onder 1500 m en geen cumulonimbus

METAR: FMCZ 171900Z AUTO 14009KT CAVOK 26/22 Q1018 NOSIG

Tijdstip: 22:16 (19:16 UTC)

Verwachting

Dit bericht is 2 uur en het 16 minuten geleden gemaakt, om 17:00 UTC
Verwachting geldig van 17 om 18 UTC tot 18 om 18 UTC
Wind 10 kt uit het zuiden
Zicht 10 km of meer
Verspreide wolken op 3300 ft

TAF: FMCZ 171700Z 1718/1818 17010KT 9999 SCT033

Waarnemingen en weersverwachtingen van meer dan 4000 vliegvelden (METAR en TAF).

De beschikbare stations zijn de gele en rode punten op de kaart.

Ga met uw muis naar het station om de naam te zien.

Klik dan om waarnemingen en weersverwachtingen te zien.

kaart wijzigen: klik op de groene knoppen met een zwart kruis om in te zoomen, op de groene knop met een streepje om uit te zoomen of op de groene pijlen voor aangrenzende kaarten.


METAR-TAF: